Time;durP1;ratioP1;P1;durP2;ratioP2;P2;SDS_P1;SDS_P2;PMS_P1;PMS_P2;Temp;Humidity;BMP_temperature;BMP_pressure;BME280_temperature;BME280_humidity;BME280_pressure;Samples;Min_cycle;Max_cycle;Signal;HPM_P1;HPM_P2
2021/11/03 00:02:05;;;;;;;;;;;22.70;98.10;;;;;;5091962;28;19920;-81
2021/11/03 00:04:32;;;;;;;;;;;22.70;98.30;;;;;;5092359;28;19998;-77
2021/11/03 00:06:59;;;;;;;;;;;22.60;98.40;;;;;;5092425;28;20351;-78
2021/11/03 00:09:26;;;;;;;;;;;22.70;98.70;;;;;;5091957;28;19908;-75
2021/11/03 00:11:53;;;;;;;;;;;22.90;98.50;;;;;;5092835;28;19915;-81
2021/11/03 00:14:20;;;;;;;;;;;22.70;97.90;;;;;;5092765;28;19977;-78
2021/11/03 00:16:46;;;;;;;;;;;22.60;98.20;;;;;;5093009;28;20369;-81
2021/11/03 00:19:13;;;;;;;;;;;22.70;98.20;;;;;;5092399;28;20426;-81
2021/11/03 00:21:40;;;;;;;;;;;22.60;98.00;;;;;;5092486;28;20408;-81
2021/11/03 00:24:07;;;;;;;;;;;22.80;98.00;;;;;;5092068;28;19916;-80
2021/11/03 00:26:33;;;;;;;;;;;22.80;98.10;;;;;;5092212;28;20278;-82
2021/11/03 00:29:00;;;;;;;;;;;22.90;98.10;;;;;;5092427;28;19909;-81
2021/11/03 00:31:27;;;;;;;;;;;23.10;97.70;;;;;;5092414;28;20011;-82
2021/11/03 00:33:53;;;;;;;;;;;23.30;97.40;;;;;;5094147;28;19987;-80
2021/11/03 00:36:20;;;;;;;;;;;23.50;97.20;;;;;;5095443;28;20287;-79
2021/11/03 00:38:47;;;;;;;;;;;23.60;96.90;;;;;;5095948;28;20262;-80
2021/11/03 00:41:13;;;;;;;;;;;23.90;96.50;;;;;;5095827;28;19915;-81
2021/11/03 00:43:40;;;;;;;;;;;24.30;96.50;;;;;;5096142;28;19918;-81
2021/11/03 00:46:07;;;;;;;;;;;24.60;95.90;;;;;;5095618;28;20335;-80
2021/11/03 00:48:33;;;;;;;;;;;24.60;95.30;;;;;;5095732;28;20307;-80
2021/11/03 00:51:00;;;;;;;;;;;24.30;95.60;;;;;;5095798;28;19912;-80
2021/11/03 00:53:27;;;;;;;;;;;24.40;95.90;;;;;;5095458;28;20354;-81
2021/11/03 00:55:53;;;;;;;;;;;24.50;96.00;;;;;;5095289;28;20014;-81
2021/11/03 00:58:20;;;;;;;;;;;24.70;95.80;;;;;;5094993;28;19912;-81
2021/11/03 01:00:47;;;;;;;;;;;24.90;95.60;;;;;;5095313;28;19928;-81
2021/11/03 01:03:14;;;;;;;;;;;24.70;95.30;;;;;;5095236;28;19912;-81
2021/11/03 01:05:40;;;;;;;;;;;24.50;95.50;;;;;;5095032;28;19939;-80
2021/11/03 01:08:11;;;;;;;;;;;24.70;94.70;;;;;;5095102;28;19988;-81
2021/11/03 01:10:39;;;;;;;;;;;24.50;95.00;;;;;;5095062;28;19908;-79
2021/11/03 01:13:06;;;;;;;;;;;24.60;94.50;;;;;;5095399;28;19915;-79
2021/11/03 01:15:33;;;;;;;;;;;24.50;95.20;;;;;;5095350;28;20320;-80
2021/11/03 01:18:00;;;;;;;;;;;24.40;96.00;;;;;;5094951;28;20398;-81
2021/11/03 01:20:27;;;;;;;;;;;24.50;96.20;;;;;;5095310;28;20464;-80
2021/11/03 01:22:54;;;;;;;;;;;24.60;95.90;;;;;;5094938;28;19908;-81
2021/11/03 01:25:22;;;;;;;;;;;24.60;95.90;;;;;;5095146;28;19920;-80
2021/11/03 01:27:49;;;;;;;;;;;25.00;95.40;;;;;;5095079;28;20273;-81
2021/11/03 01:30:17;;;;;;;;;;;24.90;95.10;;;;;;5095035;28;19915;-81
2021/11/03 01:32:44;;;;;;;;;;;24.20;95.80;;;;;;5093998;28;20362;-79
2021/11/03 01:35:11;;;;;;;;;;;24.00;95.00;;;;;;5094634;28;20076;-79
2021/11/03 01:37:37;;;;;;;;;;;23.50;95.90;;;;;;5094998;28;19908;-77
2021/11/03 01:40:07;;;;;;;;;;;23.40;95.90;;;;;;5094441;28;19908;-76
2021/11/03 01:42:35;;;;;;;;;;;23.40;96.20;;;;;;5094756;28;19927;-74
2021/11/03 01:45:02;;;;;;;;;;;23.30;96.40;;;;;;5092489;28;20020;-74
2021/11/03 01:47:42;;;;;;;;;;;23.40;96.50;;;;;;5094158;28;20251;-73
2021/11/03 01:50:15;;;;;;;;;;;23.30;96.20;;;;;;5094347;28;19908;-79
2021/11/03 01:52:42;;;;;;;;;;;23.40;97.10;;;;;;5094379;28;19909;-77
2021/11/03 01:55:11;;;;;;;;;;;23.40;96.80;;;;;;5094392;28;19908;-77
2021/11/03 01:57:42;;;;;;;;;;;23.60;96.90;;;;;;5094213;28;19908;-81
2021/11/03 02:00:14;;;;;;;;;;;23.50;97.10;;;;;;5093961;28;19915;-78
2021/11/03 02:02:42;;;;;;;;;;;23.50;96.40;;;;;;5094189;28;20027;-80
2021/11/03 02:05:10;;;;;;;;;;;23.60;96.90;;;;;;5094177;28;20355;-77
2021/11/03 02:07:38;;;;;;;;;;;23.90;96.50;;;;;;5094046;28;19915;-77
2021/11/03 02:10:05;;;;;;;;;;;23.80;96.40;;;;;;5093512;28;20019;-76
2021/11/03 02:12:32;;;;;;;;;;;23.70;96.30;;;;;;5093899;28;19961;-77
2021/11/03 02:14:59;;;;;;;;;;;23.60;96.30;;;;;;5092637;28;19912;-80
2021/11/03 02:17:28;;;;;;;;;;;23.50;96.50;;;;;;5093706;28;19908;-81
2021/11/03 02:19:56;;;;;;;;;;;23.50;96.50;;;;;;5093806;28;19908;-80
2021/11/03 02:22:41;;;;;;;;;;;23.60;96.90;;;;;;5093722;28;19908;-79
2021/11/03 02:25:15;;;;;;;;;;;23.50;96.70;;;;;;5093497;28;20015;-81
2021/11/03 02:27:43;;;;;;;;;;;23.50;96.50;;;;;;5093909;28;19961;-80
2021/11/03 02:30:11;;;;;;;;;;;23.40;96.60;;;;;;5093527;28;19908;-80
2021/11/03 02:32:41;;;;;;;;;;;23.20;96.20;;;;;;5093486;28;19919;-80
2021/11/03 02:35:07;;;;;;;;;;;23.00;97.50;;;;;;5093380;28;19912;-81
2021/11/03 02:37:42;;;;;;;;;;;23.00;97.10;;;;;;5093422;28;19940;-80
2021/11/03 02:40:13;;;;;;;;;;;22.90;97.10;;;;;;5093008;28;19959;-80
2021/11/03 02:42:42;;;;;;;;;;;22.90;97.30;;;;;;5093434;28;19908;-82
2021/11/03 02:45:44;;;;;;;;;;;23.10;96.50;;;;;;5093407;28;19941;-81
2021/11/03 02:48:11;;;;;;;;;;;23.00;96.70;;;;;;5070539;28;19912;-80
2021/11/03 02:50:51;;;;;;;;;;;22.90;97.60;;;;;;5088822;28;19961;-81
2021/11/03 02:53:17;;;;;;;;;;;23.00;96.40;;;;;;5093194;28;19909;-80
2021/11/03 02:55:44;;;;;;;;;;;22.80;96.90;;;;;;5093111;28;19908;-81
2021/11/03 02:58:11;;;;;;;;;;;22.70;96.90;;;;;;5092079;28;19994;-78
2021/11/03 03:00:37;;;;;;;;;;;22.60;97.20;;;;;;5092674;28;19981;-78
2021/11/03 03:03:04;;;;;;;;;;;22.70;97.40;;;;;;5092734;28;19919;-75
2021/11/03 03:05:31;;;;;;;;;;;22.70;96.70;;;;;;5093109;28;20354;-77
2021/11/03 03:07:57;;;;;;;;;;;22.50;97.20;;;;;;5092942;28;19919;-74
2021/11/03 03:10:24;;;;;;;;;;;22.60;97.50;;;;;;5092851;28;19908;-74
2021/11/03 03:12:51;;;;;;;;;;;22.80;97.40;;;;;;5092977;28;20006;-73
2021/11/03 03:15:18;;;;;;;;;;;23.10;97.10;;;;;;5092867;28;19961;-74
2021/11/03 03:17:44;;;;;;;;;;;23.30;96.50;;;;;;5092794;28;19908;-76
2021/11/03 03:20:11;;;;;;;;;;;23.20;96.30;;;;;;5092564;28;19912;-79
2021/11/03 03:22:38;;;;;;;;;;;23.10;96.70;;;;;;5092987;28;20333;-75
2021/11/03 03:25:08;;;;;;;;;;;22.80;96.10;;;;;;5092430;28;19977;-75
2021/11/03 03:27:35;;;;;;;;;;;22.60;96.30;;;;;;5092542;28;20266;-73
2021/11/03 03:30:02;;;;;;;;;;;22.80;96.80;;;;;;5087160;28;19908;-76
2021/11/03 03:32:29;;;;;;;;;;;22.90;96.30;;;;;;5092461;28;19908;-74
2021/11/03 03:34:55;;;;;;;;;;;23.10;97.10;;;;;;5092758;28;19908;-78
2021/11/03 03:37:22;;;;;;;;;;;23.20;97.00;;;;;;5092488;28;19908;-75
2021/11/03 03:39:49;;;;;;;;;;;23.00;96.80;;;;;;5092363;28;19915;-75
2021/11/03 03:42:17;;;;;;;;;;;23.00;96.80;;;;;;5092184;28;20002;-75
2021/11/03 03:44:43;;;;;;;;;;;22.90;97.30;;;;;;5092232;28;20362;-73
2021/11/03 03:47:10;;;;;;;;;;;23.00;96.60;;;;;;5092526;28;19908;-74
2021/11/03 03:49:37;;;;;;;;;;;22.90;95.90;;;;;;5092570;28;19908;-74
2021/11/03 03:52:04;;;;;;;;;;;22.70;96.70;;;;;;5092112;28;19915;-80
2021/11/03 03:54:31;;;;;;;;;;;22.70;96.40;;;;;;5092683;28;20270;-77
2021/11/03 03:56:58;;;;;;;;;;;22.50;96.70;;;;;;5092847;28;19909;-81
2021/11/03 03:59:24;;;;;;;;;;;22.50;96.70;;;;;;5092445;28;19948;-79
2021/11/03 04:01:51;;;;;;;;;;;22.60;97.10;;;;;;5091981;28;19963;-75
2021/11/03 04:04:18;;;;;;;;;;;22.50;97.50;;;;;;5091608;28;19923;-80
2021/11/03 04:06:45;;;;;;;;;;;22.50;96.50;;;;;;5091917;28;20362;-77
2021/11/03 04:09:12;;;;;;;;;;;22.50;96.60;;;;;;5094417;28;20384;-74
2021/11/03 04:11:39;;;;;;;;;;;22.40;96.80;;;;;;5096260;28;19908;-76
2021/11/03 04:14:06;;;;;;;;;;;22.50;97.10;;;;;;5095841;28;19955;-79
2021/11/03 04:16:33;;;;;;;;;;;22.70;96.80;;;;;;5096230;28;20006;-76
2021/11/03 04:19:00;;;;;;;;;;;22.80;97.00;;;;;;5096037;28;19915;-80
2021/11/03 04:21:26;;;;;;;;;;;22.70;97.10;;;;;;5095694;28;19908;-77
2021/11/03 04:23:53;;;;;;;;;;;22.70;97.40;;;;;;5095883;28;19916;-79
2021/11/03 04:26:22;;;;;;;;;;;22.70;97.30;;;;;;5095739;28;20249;-80
2021/11/03 04:28:48;;;;;;;;;;;22.60;97.70;;;;;;5096061;28;19946;-74
2021/11/03 04:31:15;;;;;;;;;;;22.50;97.40;;;;;;5095673;28;19908;-75
2021/11/03 04:33:42;;;;;;;;;;;22.50;97.30;;;;;;5095545;28;19931;-77
2021/11/03 04:36:08;;;;;;;;;;;22.50;97.70;;;;;;5095848;28;20359;-80
2021/11/03 04:38:35;;;;;;;;;;;22.60;97.40;;;;;;5095818;28;19908;-81
2021/11/03 04:41:02;;;;;;;;;;;22.60;97.50;;;;;;5095796;28;19908;-79
2021/11/03 04:43:28;;;;;;;;;;;22.40;97.50;;;;;;5095523;28;20392;-79
2021/11/03 04:45:55;;;;;;;;;;;22.30;97.10;;;;;;5095715;28;19912;-81
2021/11/03 04:48:22;;;;;;;;;;;22.10;97.60;;;;;;5095270;28;20380;-80
2021/11/03 04:50:48;;;;;;;;;;;21.90;97.90;;;;;;5095505;28;19915;-77
2021/11/03 04:53:15;;;;;;;;;;;22.00;98.10;;;;;;5095200;28;19912;-80
2021/11/03 04:55:42;;;;;;;;;;;22.10;97.90;;;;;;5095622;28;19909;-80
2021/11/03 04:58:09;;;;;;;;;;;22.30;97.90;;;;;;5095446;28;19915;-77
2021/11/03 05:00:36;;;;;;;;;;;22.30;97.60;;;;;;5095216;28;19920;-79
2021/11/03 05:03:03;;;;;;;;;;;22.40;97.90;;;;;;5095202;28;19977;-79
2021/11/03 05:05:29;;;;;;;;;;;22.50;97.70;;;;;;5095176;28;19924;-79
2021/11/03 05:07:56;;;;;;;;;;;22.50;98.10;;;;;;5094623;28;19912;-80
2021/11/03 05:10:23;;;;;;;;;;;22.30;97.60;;;;;;5095108;28;20281;-79
2021/11/03 05:12:50;;;;;;;;;;;22.20;98.10;;;;;;5095105;28;19951;-79
2021/11/03 05:15:17;;;;;;;;;;;21.90;98.60;;;;;;5095177;28;19920;-82
2021/11/03 05:17:44;;;;;;;;;;;21.80;98.60;;;;;;5095143;28;20002;-81
2021/11/03 05:20:10;;;;;;;;;;;21.80;99.10;;;;;;5093731;28;20111;-80
2021/11/03 05:22:38;;;;;;;;;;;21.70;98.60;;;;;;5094796;28;19908;-76
2021/11/03 05:25:05;;;;;;;;;;;21.60;98.60;;;;;;5094583;28;19923;-77
2021/11/03 05:27:32;;;;;;;;;;;21.80;99.00;;;;;;5094969;28;20382;-79
2021/11/03 05:29:59;;;;;;;;;;;21.80;99.00;;;;;;5094422;28;20277;-80
2021/11/03 05:32:26;;;;;;;;;;;21.90;99.10;;;;;;5095002;28;19952;-78
2021/11/03 05:34:52;;;;;;;;;;;21.90;99.00;;;;;;5094793;28;20009;-81
2021/11/03 05:37:19;;;;;;;;;;;21.90;99.20;;;;;;5094391;28;20440;-80
2021/11/03 05:39:46;;;;;;;;;;;22.00;99.10;;;;;;5094572;28;19916;-81
2021/11/03 05:42:13;;;;;;;;;;;22.00;98.40;;;;;;5094378;28;19908;-81
2021/11/03 05:44:40;;;;;;;;;;;21.80;98.50;;;;;;5094181;28;19917;-78
2021/11/03 05:47:07;;;;;;;;;;;21.80;98.70;;;;;;5094648;28;19915;-75
2021/11/03 05:49:35;;;;;;;;;;;21.60;98.40;;;;;;5094581;28;19908;-81
2021/11/03 05:52:03;;;;;;;;;;;21.50;98.80;;;;;;5091839;28;19911;-78
2021/11/03 05:54:30;;;;;;;;;;;21.50;98.70;;;;;;5092159;28;19908;-77
2021/11/03 05:56:58;;;;;;;;;;;21.50;98.80;;;;;;5073378;28;20426;-80
2021/11/03 05:59:25;;;;;;;;;;;21.40;99.00;;;;;;5072235;28;19912;-77
2021/11/03 06:01:51;;;;;;;;;;;21.30;99.30;;;;;;5071683;28;20386;-78
2021/11/03 06:04:18;;;;;;;;;;;21.20;99.50;;;;;;5070802;28;19990;-76
2021/11/03 06:06:45;;;;;;;;;;;21.10;99.90;;;;;;5071977;28;19948;-79
2021/11/03 06:09:12;;;;;;;;;;;21.10;99.90;;;;;;5071194;28;19908;-78
2021/11/03 06:11:41;;;;;;;;;;;21.10;99.90;;;;;;5071883;28;19913;-80
2021/11/03 06:14:07;;;;;;;;;;;21.00;99.90;;;;;;5071528;28;19916;-81
2021/11/03 06:16:34;;;;;;;;;;;21.10;99.90;;;;;;5071524;28;19912;-79
2021/11/03 06:19:01;;;;;;;;;;;21.20;99.90;;;;;;5071142;28;19916;-82
2021/11/03 06:21:28;;;;;;;;;;;21.30;99.90;;;;;;5071119;28;19913;-80
2021/11/03 06:23:54;;;;;;;;;;;21.40;99.90;;;;;;5071384;28;19912;-82
2021/11/03 06:26:22;;;;;;;;;;;21.30;99.90;;;;;;5071116;28;20370;-81
2021/11/03 06:28:49;;;;;;;;;;;21.20;99.90;;;;;;5071273;28;20287;-81
2021/11/03 06:31:16;;;;;;;;;;;21.20;99.90;;;;;;5070698;28;20263;-80
2021/11/03 06:33:43;;;;;;;;;;;21.30;99.90;;;;;;5071295;28;19958;-80
2021/11/03 06:36:10;;;;;;;;;;;21.30;99.90;;;;;;5070808;28;19912;-81
2021/11/03 06:38:37;;;;;;;;;;;21.30;99.90;;;;;;5071078;28;19989;-80
2021/11/03 06:41:05;;;;;;;;;;;21.30;99.90;;;;;;5068671;28;20260;-80
2021/11/03 06:43:32;;;;;;;;;;;21.30;99.90;;;;;;5070665;28;19963;-80
2021/11/03 06:45:58;;;;;;;;;;;21.30;99.90;;;;;;5071116;28;19912;-80
2021/11/03 06:48:25;;;;;;;;;;;21.20;99.90;;;;;;5071097;28;19912;-78
2021/11/03 06:50:52;;;;;;;;;;;21.10;99.90;;;;;;5071080;28;19909;-79
2021/11/03 06:53:22;;;;;;;;;;;21.10;99.90;;;;;;5071063;28;20363;-79
2021/11/03 06:55:49;;;;;;;;;;;21.00;99.90;;;;;;5071136;28;19915;-80
2021/11/03 06:58:16;;;;;;;;;;;21.00;99.90;;;;;;5070542;28;19915;-81
2021/11/03 07:00:44;;;;;;;;;;;20.90;99.90;;;;;;5070474;28;20355;-75
2021/11/03 07:03:11;;;;;;;;;;;20.90;99.90;;;;;;5070586;28;19938;-79
2021/11/03 07:05:40;;;;;;;;;;;20.80;99.90;;;;;;5070561;28;20290;-77
2021/11/03 07:08:07;;;;;;;;;;;20.70;99.90;;;;;;5070362;28;20326;-78
2021/11/03 07:10:36;;;;;;;;;;;20.60;99.90;;;;;;5070650;28;19909;-81
2021/11/03 07:13:03;;;;;;;;;;;20.60;99.90;;;;;;5070530;28;19909;-79
2021/11/03 07:15:30;;;;;;;;;;;20.60;99.90;;;;;;5070795;28;19988;-79
2021/11/03 07:17:57;;;;;;;;;;;20.60;99.90;;;;;;5070619;28;19981;-79
2021/11/03 07:20:32;;;;;;;;;;;20.60;99.90;;;;;;5085389;28;19919;-77
2021/11/03 07:23:01;;;;;;;;;;;20.60;99.90;;;;;;5090917;28;19943;-77
2021/11/03 07:25:28;;;;;;;;;;;20.60;99.90;;;;;;5090922;28;19920;-78
2021/11/03 07:27:56;;;;;;;;;;;20.50;99.90;;;;;;5091129;28;19908;-76
2021/11/03 07:30:24;;;;;;;;;;;20.50;99.90;;;;;;5090504;28;19915;-78
2021/11/03 07:32:51;;;;;;;;;;;20.50;99.90;;;;;;5091201;28;20446;-77
2021/11/03 07:35:18;;;;;;;;;;;20.40;99.90;;;;;;5089651;28;20329;-78
2021/11/03 07:37:45;;;;;;;;;;;20.40;99.90;;;;;;5090447;28;19912;-79
2021/11/03 07:40:14;;;;;;;;;;;20.40;99.90;;;;;;5090254;28;19920;-79
2021/11/03 07:42:41;;;;;;;;;;;20.40;99.90;;;;;;5090409;28;19950;-77
2021/11/03 07:45:09;;;;;;;;;;;20.30;99.90;;;;;;5095356;28;19916;-77
2021/11/03 07:47:36;;;;;;;;;;;20.30;99.90;;;;;;5094680;28;20414;-80
2021/11/03 07:50:04;;;;;;;;;;;20.30;99.90;;;;;;5094152;28;19912;-79
2021/11/03 07:52:30;;;;;;;;;;;20.30;99.90;;;;;;5094711;28;20373;-79
2021/11/03 07:54:57;;;;;;;;;;;20.30;99.90;;;;;;5094605;28;19915;-78
2021/11/03 07:57:24;;;;;;;;;;;20.30;99.90;;;;;;5093066;28;20445;-80
2021/11/03 07:59:50;;;;;;;;;;;20.30;99.90;;;;;;5093922;28;20009;-78
2021/11/03 08:02:17;;;;;;;;;;;20.40;99.90;;;;;;5093522;28;19982;-78
2021/11/03 08:04:44;;;;;;;;;;;20.30;99.90;;;;;;5093586;28;19916;-79
2021/11/03 08:07:11;;;;;;;;;;;20.30;99.90;;;;;;5096465;28;20067;-78
2021/11/03 08:09:44;;;;;;;;;;;20.20;99.90;;;;;;5096248;28;19946;-72
2021/11/03 08:12:11;;;;;;;;;;;20.20;99.90;;;;;;5096667;28;19915;-76
2021/11/03 08:14:37;;;;;;;;;;;20.20;99.90;;;;;;5095886;28;19908;-78
2021/11/03 08:17:04;;;;;;;;;;;20.20;99.90;;;;;;5097081;28;19909;-76
2021/11/03 08:19:52;;;;;;;;;;;20.20;99.90;;;;;;5096799;28;19923;-79
2021/11/03 08:22:24;;;;;;;;;;;20.10;99.90;;;;;;5096349;28;19912;-77
2021/11/03 08:24:51;;;;;;;;;;;20.10;99.90;;;;;;5096657;28;19920;-79
2021/11/03 08:27:19;;;;;;;;;;;20.10;99.90;;;;;;5096226;28;19912;-74
2021/11/03 08:29:46;;;;;;;;;;;20.10;99.90;;;;;;5096044;28;20358;-80
2021/11/03 08:32:14;;;;;;;;;;;20.10;99.90;;;;;;5096185;28;20362;-80
2021/11/03 08:34:41;;;;;;;;;;;20.10;99.90;;;;;;5096687;28;20265;-79
2021/11/03 08:37:10;;;;;;;;;;;20.10;99.90;;;;;;5095805;28;19908;-80
2021/11/03 08:39:39;;;;;;;;;;;20.00;99.90;;;;;;5095696;28;20007;-79
2021/11/03 08:42:06;;;;;;;;;;;20.00;99.90;;;;;;5095898;28;20243;-76
2021/11/03 08:44:35;;;;;;;;;;;20.00;99.90;;;;;;5097297;28;19920;-79
2021/11/03 08:47:02;;;;;;;;;;;20.00;99.90;;;;;;5095576;28;20006;-81
2021/11/03 08:49:30;;;;;;;;;;;20.00;99.90;;;;;;5095660;28;19955;-79
2021/11/03 08:51:57;;;;;;;;;;;20.00;99.90;;;;;;5095202;28;20278;-80
2021/11/03 08:54:24;;;;;;;;;;;20.00;99.90;;;;;;5095809;28;20419;-79
2021/11/03 08:56:51;;;;;;;;;;;20.00;99.90;;;;;;5096081;28;19919;-78
2021/11/03 08:59:18;;;;;;;;;;;20.00;99.90;;;;;;5095569;28;19908;-79
2021/11/03 09:01:45;;;;;;;;;;;20.00;99.90;;;;;;5095363;28;20293;-78
2021/11/03 09:04:12;;;;;;;;;;;20.00;99.90;;;;;;5095293;28;19916;-76
2021/11/03 09:06:39;;;;;;;;;;;20.00;99.90;;;;;;5095286;28;20389;-78
2021/11/03 09:09:06;;;;;;;;;;;20.00;99.90;;;;;;5095257;28;19915;-77
2021/11/03 09:11:33;;;;;;;;;;;20.00;99.90;;;;;;5095020;28;19915;-80
2021/11/03 09:14:00;;;;;;;;;;;20.00;99.90;;;;;;5094561;28;19950;-78
2021/11/03 09:16:27;;;;;;;;;;;19.90;99.90;;;;;;5095535;28;20435;-78
2021/11/03 09:18:54;;;;;;;;;;;19.90;99.90;;;;;;5095264;28;20003;-78
2021/11/03 09:21:22;;;;;;;;;;;19.90;99.90;;;;;;5095066;28;19908;-79
2021/11/03 09:23:49;;;;;;;;;;;19.90;99.90;;;;;;5095158;28;19912;-77
2021/11/03 09:26:17;;;;;;;;;;;19.90;99.90;;;;;;5094884;28;19915;-81
2021/11/03 09:28:45;;;;;;;;;;;19.90;99.90;;;;;;5081196;28;19915;-80
2021/11/03 09:31:11;;;;;;;;;;;19.90;99.90;;;;;;5074513;28;19912;-79
2021/11/03 09:33:39;;;;;;;;;;;19.90;99.90;;;;;;5073922;28;20397;-76
2021/11/03 09:36:06;;;;;;;;;;;19.80;99.90;;;;;;5074438;28;19908;-77
2021/11/03 09:38:34;;;;;;;;;;;19.80;99.90;;;;;;5074575;28;20366;-79
2021/11/03 09:41:06;;;;;;;;;;;19.80;99.90;;;;;;5074573;28;19912;-76
2021/11/03 09:43:37;;;;;;;;;;;19.80;99.90;;;;;;5074365;28;20282;-76
2021/11/03 09:46:16;;;;;;;;;;;19.80;99.90;;;;;;5074395;28;20378;-76
2021/11/03 09:48:44;;;;;;;;;;;19.80;99.90;;;;;;5073809;28;19908;-79
2021/11/03 09:51:16;;;;;;;;;;;19.80;99.90;;;;;;5074238;28;19970;-77
2021/11/03 09:53:46;;;;;;;;;;;19.80;99.90;;;;;;5074117;28;20006;-78
2021/11/03 09:56:14;;;;;;;;;;;19.80;99.90;;;;;;5074124;28;19908;-80
2021/11/03 09:58:44;;;;;;;;;;;19.80;99.90;;;;;;5074017;28;19916;-78
2021/11/03 10:01:42;;;;;;;;;;;19.80;99.90;;;;;;5073809;28;19924;-79
2021/11/03 10:04:09;;;;;;;;;;;19.70;99.90;;;;;;5063701;28;19916;-79
2021/11/03 10:06:50;;;;;;;;;;;19.70;99.90;;;;;;5073586;28;19951;-79
2021/11/03 10:09:17;;;;;;;;;;;19.70;99.90;;;;;;5073688;28;19986;-78
2021/11/03 10:11:48;;;;;;;;;;;19.70;99.90;;;;;;5074126;28;19909;-79
2021/11/03 10:14:16;;;;;;;;;;;19.70;99.90;;;;;;5073502;28;20001;-78
2021/11/03 10:16:49;;;;;;;;;;;19.70;99.90;;;;;;5073406;28;20301;-79
2021/11/03 10:19:15;;;;;;;;;;;19.60;99.90;;;;;;5069472;28;20171;-75
2021/11/03 10:21:42;;;;;;;;;;;19.60;99.90;;;;;;5093746;28;19915;-79
2021/11/03 10:24:12;;;;;;;;;;;19.60;99.90;;;;;;5094644;28;19916;-79
2021/11/03 10:26:56;;;;;;;;;;;19.60;99.90;;;;;;5094641;28;19934;-77
2021/11/03 10:29:34;;;;;;;;;;;19.60;99.90;;;;;;5094343;28;19999;-78
2021/11/03 10:32:07;;;;;;;;;;;19.60;99.90;;;;;;5093446;28;19955;-78
2021/11/03 10:34:34;;;;;;;;;;;19.60;99.90;;;;;;5094303;28;19966;-78
2021/11/03 10:37:12;;;;;;;;;;;19.50;99.90;;;;;;5093732;28;20007;-78
2021/11/03 10:39:41;;;;;;;;;;;19.60;99.90;;;;;;5094052;28;19930;-73
2021/11/03 10:42:28;;;;;;;;;;;19.60;99.90;;;;;;5093655;28;20007;-79
2021/11/03 10:45:10;;;;;;;;;;;19.60;99.90;;;;;;5093387;28;20346;-74
2021/11/03 10:47:37;;;;;;;;;;;19.50;99.90;;;;;;5093614;28;20030;-77
2021/11/03 10:50:27;;;;;;;;;;;19.60;99.90;;;;;;5093548;28;19927;-75
2021/11/03 10:52:56;;;;;;;;;;;19.60;99.90;;;;;;5094688;28;19915;-78
2021/11/03 10:55:34;;;;;;;;;;;19.60;99.90;;;;;;5093856;28;19912;-77
2021/11/03 10:58:13;;;;;;;;;;;19.60;99.90;;;;;;5094154;28;19912;-79
2021/11/03 11:00:44;;;;;;;;;;;19.60;99.90;;;;;;5093979;28;19935;-80
2021/11/03 11:03:11;;;;;;;;;;;19.60;99.90;;;;;;5094131;28;19912;-78
2021/11/03 11:05:40;;;;;;;;;;;19.60;99.90;;;;;;5094310;28;20323;-78
2021/11/03 11:08:27;;;;;;;;;;;19.60;99.90;;;;;;5093458;28;19947;-79
2021/11/03 11:11:03;;;;;;;;;;;19.60;99.90;;;;;;5093433;28;19909;-77
2021/11/03 11:13:34;;;;;;;;;;;19.60;99.90;;;;;;5093704;28;20255;-78
2021/11/03 11:16:09;;;;;;;;;;;19.60;99.90;;;;;;5092887;28;19982;-79
2021/11/03 11:18:42;;;;;;;;;;;19.60;99.90;;;;;;5092347;28;20227;-79
2021/11/03 11:21:18;;;;;;;;;;;19.60;99.90;;;;;;5093173;28;20269;-78
2021/11/03 11:23:56;;;;;;;;;;;19.60;99.90;;;;;;5093800;28;19912;-79
2021/11/03 11:26:35;;;;;;;;;;;19.60;99.90;;;;;;5093743;28;19918;-80
2021/11/03 11:29:24;;;;;;;;;;;19.50;99.90;;;;;;5094316;28;20000;-78
2021/11/03 11:31:57;;;;;;;;;;;19.50;99.90;;;;;;5087995;28;19923;-80
2021/11/03 11:34:33;;;;;;;;;;;19.50;99.90;;;;;;5094339;28;19953;-78
2021/11/03 11:37:02;;;;;;;;;;;19.50;99.90;;;;;;5093702;28;19908;-79
2021/11/03 11:39:47;;;;;;;;;;;19.60;99.90;;;;;;5094028;28;19909;-80
2021/11/03 11:42:13;;;;;;;;;;;19.60;99.90;;;;;;5093065;28;19912;-80
2021/11/03 11:44:46;;;;;;;;;;;19.60;99.90;;;;;;5093747;28;20086;-80
2021/11/03 11:47:16;;;;;;;;;;;19.60;99.90;;;;;;5094065;28;19916;-77
2021/11/03 11:49:44;;;;;;;;;;;19.60;99.90;;;;;;5093854;28;20408;-79
2021/11/03 11:52:14;;;;;;;;;;;19.60;99.90;;;;;;5093426;28;19963;-77
2021/11/03 11:55:00;;;;;;;;;;;19.50;99.90;;;;;;5093973;28;20014;-78
2021/11/03 11:57:27;;;;;;;;;;;19.50;99.90;;;;;;5093713;28;19915;-79
2021/11/03 12:00:01;;;;;;;;;;;19.50;99.90;;;;;;5094469;28;19912;-77
2021/11/03 12:02:33;;;;;;;;;;;19.50;99.90;;;;;;5092282;28;19954;-79
2021/11/03 12:05:17;;;;;;;;;;;19.50;99.90;;;;;;5085010;28;19917;-78
2021/11/03 12:08:03;;;;;;;;;;;19.50;99.90;;;;;;5073266;28;19915;-78
2021/11/03 12:10:31;;;;;;;;;;;19.50;99.90;;;;;;5073951;28;20426;-76
2021/11/03 12:13:18;;;;;;;;;;;19.60;99.90;;;;;;5073316;28;19939;-73
2021/11/03 12:15:51;;;;;;;;;;;19.60;99.90;;;;;;5073648;28;19916;-76
2021/11/03 12:18:18;;;;;;;;;;;19.50;99.90;;;;;;5073324;28;20510;-75
2021/11/03 12:20:46;;;;;;;;;;;19.50;99.90;;;;;;5072670;28;19962;-76
2021/11/03 12:23:31;;;;;;;;;;;19.50;99.90;;;;;;5072938;28;19962;-78
2021/11/03 12:26:17;;;;;;;;;;;19.50;99.90;;;;;;5072722;28;19966;-76
2021/11/03 12:28:55;;;;;;;;;;;19.50;99.90;;;;;;5072619;28;19912;-77
2021/11/03 12:31:27;;;;;;;;;;;19.60;99.90;;;;;;5076535;28;19916;-74
2021/11/03 12:34:03;;;;;;;;;;;19.50;99.90;;;;;;5076176;28;20271;-75
2021/11/03 12:36:31;;;;;;;;;;;19.60;99.90;;;;;;5076149;28;20423;-74
2021/11/03 12:38:59;;;;;;;;;;;19.60;99.90;;;;;;5076231;28;19990;-75
2021/11/03 12:41:31;;;;;;;;;;;19.60;99.90;;;;;;5076748;28;19955;-76
2021/11/03 12:44:01;;;;;;;;;;;19.60;99.90;;;;;;5109039;28;19959;-74
2021/11/03 12:46:28;;;;;;;;;;;19.60;99.90;;;;;;5076548;28;19909;-77
2021/11/03 12:48:58;;;;;;;;;;;19.70;99.90;;;;;;5076343;28;19962;-80
2021/11/03 12:51:33;;;;;;;;;;;19.70;99.90;;;;;;5076157;28;19970;-78
2021/11/03 12:54:03;;;;;;;;;;;19.70;99.90;;;;;;5075882;28;20251;-77
2021/11/03 12:56:31;;;;;;;;;;;19.70;99.90;;;;;;5076934;28;19908;-80
2021/11/03 12:59:01;;;;;;;;;;;19.60;99.90;;;;;;5076741;28;19913;-75
2021/11/03 13:01:27;;;;;;;;;;;19.60;99.90;;;;;;5073768;28;20011;-76
2021/11/03 13:03:58;;;;;;;;;;;19.50;99.90;;;;;;5076337;28;20251;-76
2021/11/03 13:06:30;;;;;;;;;;;19.50;99.90;;;;;;5076523;28;19919;-76
2021/11/03 13:08:56;;;;;;;;;;;19.50;99.90;;;;;;5076312;28;19913;-78
2021/11/03 13:11:25;;;;;;;;;;;19.60;99.90;;;;;;5075585;28;20274;-78
2021/11/03 13:13:54;;;;;;;;;;;19.60;99.90;;;;;;5075500;28;20362;-78
2021/11/03 13:16:26;;;;;;;;;;;19.60;99.90;;;;;;5075088;28;19908;-77
2021/11/03 13:18:53;;;;;;;;;;;19.60;99.90;;;;;;5075159;28;19996;-76
2021/11/03 13:21:20;;;;;;;;;;;19.60;99.90;;;;;;5074761;28;19912;-74
2021/11/03 13:23:48;;;;;;;;;;;19.70;99.90;;;;;;5075030;28;19908;-77
2021/11/03 13:26:21;;;;;;;;;;;19.70;99.90;;;;;;5075436;28;19912;-77
2021/11/03 13:28:49;;;;;;;;;;;19.70;99.90;;;;;;5075439;28;19908;-76
2021/11/03 13:31:16;;;;;;;;;;;19.70;99.90;;;;;;5075705;28;19950;-76
2021/11/03 13:33:56;;;;;;;;;;;19.60;99.90;;;;;;5075485;28;20343;-73
2021/11/03 13:36:27;;;;;;;;;;;19.60;99.90;;;;;;5075103;28;19909;-76
2021/11/03 13:38:56;;;;;;;;;;;19.60;99.90;;;;;;5075273;28;19908;-80
2021/11/03 13:41:33;;;;;;;;;;;19.60;99.90;;;;;;5073757;28;20378;-79
2021/11/03 13:44:18;;;;;;;;;;;19.60;99.90;;;;;;5074638;28;20278;-73
2021/11/03 13:46:47;;;;;;;;;;;19.70;99.90;;;;;;5074404;28;19915;-77
2021/11/03 13:49:16;;;;;;;;;;;19.60;99.90;;;;;;5074724;28;19912;-76
2021/11/03 13:51:53;;;;;;;;;;;19.60;99.90;;;;;;5106966;28;19909;-78
2021/11/03 13:54:25;;;;;;;;;;;19.60;99.90;;;;;;5074133;28;19914;-80
2021/11/03 13:56:55;;;;;;;;;;;19.60;99.90;;;;;;5074514;28;19916;-77
2021/11/03 13:59:28;;;;;;;;;;;19.70;99.90;;;;;;5073066;28;19912;-79
2021/11/03 14:01:57;;;;;;;;;;;19.70;99.90;;;;;;5074050;28;20359;-81
2021/11/03 14:04:33;;;;;;;;;;;19.70;99.90;;;;;;5073800;28;19951;-79
2021/11/03 14:07:02;;;;;;;;;;;19.70;99.90;;;;;;5074428;28;19908;-80
2021/11/03 14:09:29;;;;;;;;;;;19.80;99.90;;;;;;5074303;28;19998;-79
2021/11/03 14:11:57;;;;;;;;;;;19.70;99.90;;;;;;5074340;28;19999;-80
2021/11/03 14:14:25;;;;;;;;;;;19.80;99.90;;;;;;5074212;28;19908;-79
2021/11/03 14:16:53;;;;;;;;;;;19.70;99.90;;;;;;5074424;28;19916;-80
2021/11/03 14:19:27;;;;;;;;;;;19.70;99.90;;;;;;5074355;28;19931;-79
2021/11/03 14:21:56;;;;;;;;;;;19.70;99.90;;;;;;5074135;28;19909;-77
2021/11/03 14:24:23;;;;;;;;;;;19.70;99.90;;;;;;5073651;28;20363;-80
2021/11/03 14:26:50;;;;;;;;;;;19.70;99.90;;;;;;5074501;28;19921;-76
2021/11/03 14:29:17;;;;;;;;;;;19.70;99.90;;;;;;5106851;28;19909;-80